Innisfail, Australia
Current Conditions -  °F | °C
As of 6:00 AM on Monday 24 Nov 2014 (Local Time) from YBCS Reporting Station
Rain Showers Rain Showers  
Wind Chill: 77°   Ceiling: Unl
Heat Index: 78°   Visibility: 6mi
Dew Point: 72°   Wind: 8mph
Humidity: 83%   Direction: 170°S
Pressure: 29.88"   Gusts: NA
Location:  17.52°S, 146.03°E
Report Text: YBCS 232000Z 17007KT 9999 -SHRA FEW018 25/22 Q1012
Loading
Personal Weather Stations






























Interactive Weather Map New forecast layout! Learn more

10-Day Weather Forecast

Advertisements
Track Severe Weather on mobile